createdAt,value
2022-11-21T00:00:36.011Z,9.97
2022-11-21T00:03:04.980Z,9.47
2022-11-21T00:05:34.570Z,10.30
2022-11-21T00:08:03.048Z,9.53
2022-11-21T00:10:31.457Z,8.77
2022-11-21T00:13:01.535Z,9.57
2022-11-21T00:15:30.215Z,7.73
2022-11-21T00:17:58.694Z,7.33
2022-11-21T00:20:27.167Z,7.23
2022-11-21T00:22:56.248Z,7.43
2022-11-21T00:25:24.642Z,6.47
2022-11-21T00:27:53.871Z,6.40
2022-11-21T00:30:23.737Z,5.23
2022-11-21T00:32:52.138Z,5.70
2022-11-21T00:35:20.727Z,5.70
2022-11-21T00:37:50.915Z,5.40
2022-11-21T00:40:20.253Z,5.80
2022-11-21T00:42:48.645Z,5.20
2022-11-21T00:45:23.861Z,4.83
2022-11-21T00:47:54.054Z,3.77
2022-11-21T00:50:22.476Z,3.30
2022-11-21T00:52:55.354Z,3.03
2022-11-21T00:55:24.446Z,3.03
2022-11-21T00:57:52.787Z,2.90
2022-11-21T01:00:21.567Z,2.50
2022-11-21T01:02:52.954Z,2.17
2022-11-21T01:05:21.693Z,2.07
2022-11-21T01:07:50.137Z,2.10
2022-11-21T01:10:18.835Z,2.10
2022-11-21T01:12:47.527Z,1.97
2022-11-21T01:15:16.790Z,1.90
2022-11-21T01:17:45.368Z,1.83
2022-11-21T01:20:16.345Z,1.90
2022-11-21T01:22:44.925Z,1.70
2022-11-21T01:25:13.523Z,1.50
2022-11-21T01:27:41.892Z,1.73
2022-11-21T01:30:12.041Z,1.60
2022-11-21T01:32:40.553Z,1.67
2022-11-21T01:35:09.966Z,1.70
2022-11-21T01:37:40.293Z,1.57
2022-11-21T01:40:10.434Z,1.30
2022-11-21T01:42:54.596Z,1.53
2022-11-21T01:45:52.530Z,1.40
2022-11-21T01:48:23.983Z,1.30
2022-11-21T01:50:53.696Z,1.30
2022-11-21T01:53:24.690Z,1.30
2022-11-21T01:55:53.765Z,1.20
2022-11-21T01:58:23.882Z,1.30
2022-11-21T02:00:52.462Z,1.20
2022-11-21T02:03:24.787Z,1.43
2022-11-21T02:05:55.267Z,1.20
2022-11-21T02:08:28.402Z,1.30
2022-11-21T02:11:07.692Z,1.87
2022-11-21T02:13:36.103Z,1.40
2022-11-21T02:16:04.734Z,1.50
2022-11-21T02:18:33.588Z,1.50
2022-11-21T02:21:08.243Z,1.70
2022-11-21T02:23:42.776Z,1.70
2022-11-21T02:26:14.306Z,1.70
2022-11-21T02:28:43.997Z,2.03
2022-11-21T02:31:12.391Z,1.70
2022-11-21T02:33:40.732Z,1.90
2022-11-21T02:36:44.966Z,2.00
2022-11-21T02:39:19.056Z,2.00
2022-11-21T02:41:57.655Z,1.80
2022-11-21T02:44:31.131Z,2.10
2022-11-21T02:47:00.118Z,2.20
2022-11-21T02:49:39.411Z,1.80
2022-11-21T02:52:08.294Z,2.20
2022-11-21T02:54:36.632Z,2.10
2022-11-21T02:57:06.266Z,1.90
2022-11-21T02:59:34.998Z,2.10
2022-11-21T03:02:03.318Z,2.00
2022-11-21T03:04:31.819Z,1.67
2022-11-21T03:07:00.427Z,1.90
2022-11-21T03:09:28.771Z,1.90
2022-11-21T03:11:57.204Z,1.80
2022-11-21T03:14:26.961Z,1.87
2022-11-21T03:16:55.626Z,1.60
2022-11-21T03:19:23.911Z,2.07
2022-11-21T03:21:52.336Z,1.60
2022-11-21T03:24:20.572Z,1.60
2022-11-21T03:26:49.015Z,1.50
2022-11-21T03:29:17.292Z,1.27
2022-11-21T03:31:47.467Z,1.10
2022-11-21T03:34:15.832Z,1.10
2022-11-21T03:36:44.410Z,1.20
2022-11-21T03:39:12.791Z,1.00
2022-11-21T03:41:41.213Z,1.20
2022-11-21T03:44:12.193Z,0.90
2022-11-21T03:46:41.860Z,1.03
2022-11-21T03:49:12.936Z,1.00
2022-11-21T03:51:41.974Z,1.00
2022-11-21T03:54:10.746Z,0.87
2022-11-21T03:56:40.582Z,1.00
2022-11-21T03:59:08.902Z,0.87
2022-11-21T04:01:37.423Z,0.80
2022-11-21T04:04:06.141Z,0.90
2022-11-21T04:06:35.904Z,0.70
2022-11-21T04:09:05.047Z,0.67
2022-11-21T04:11:35.526Z,0.77
2022-11-21T04:14:03.788Z,0.80
2022-11-21T04:16:32.185Z,0.60
2022-11-21T04:19:00.578Z,0.40
2022-11-21T04:21:29.843Z,0.40
2022-11-21T04:23:59.748Z,0.40
2022-11-21T04:26:28.219Z,0.63
2022-11-21T04:28:56.695Z,0.57
2022-11-21T04:31:24.993Z,0.40
2022-11-21T04:33:53.483Z,0.37
2022-11-21T04:36:21.927Z,0.37
2022-11-21T04:38:50.271Z,0.60
2022-11-21T04:41:20.019Z,0.40
2022-11-21T04:43:48.341Z,0.50
2022-11-21T04:46:16.711Z,0.30
2022-11-21T04:48:45.825Z,0.30
2022-11-21T04:51:14.478Z,0.30
2022-11-21T04:53:43.349Z,0.30
2022-11-21T04:56:16.500Z,0.37
2022-11-21T04:58:46.863Z,0.57
2022-11-21T05:01:15.372Z,0.40
2022-11-21T05:03:43.651Z,0.70
2022-11-21T05:06:12.865Z,0.40
2022-11-21T05:08:41.306Z,0.60
2022-11-21T05:11:27.767Z,0.37
2022-11-21T05:13:58.223Z,0.50
2022-11-21T05:16:26.643Z,1.17
2022-11-21T05:18:54.926Z,2.73
2022-11-21T05:21:23.395Z,3.27
2022-11-21T05:23:51.949Z,5.00
2022-11-21T05:26:20.555Z,5.00
2022-11-21T05:28:48.978Z,4.23
2022-11-21T05:31:20.177Z,4.90
2022-11-21T05:33:48.673Z,5.70
2022-11-21T05:36:16.993Z,6.43
2022-11-21T05:38:45.398Z,8.40
2022-11-21T05:41:13.860Z,8.07
2022-11-21T05:43:48.008Z,8.50
2022-11-21T05:46:17.927Z,8.37
2022-11-21T05:48:48.324Z,8.00
2022-11-21T05:51:17.291Z,8.87
2022-11-21T05:53:47.354Z,8.33
2022-11-21T05:56:18.382Z,9.03
2022-11-21T05:58:47.421Z,8.27
2022-11-21T06:01:36.474Z,9.23
2022-11-21T06:04:05.469Z,9.17
2022-11-21T06:06:34.556Z,9.67
2022-11-21T06:09:03.166Z,10.43
2022-11-21T06:11:32.317Z,10.53
2022-11-21T06:14:00.795Z,10.53
2022-11-21T06:16:29.554Z,11.03
2022-11-21T06:18:59.931Z,10.73
2022-11-21T06:21:30.693Z,11.63
2022-11-21T06:23:59.800Z,11.40
2022-11-21T06:26:28.935Z,11.27
2022-11-21T06:28:57.522Z,10.90
2022-11-21T06:31:27.981Z,11.20
2022-11-21T06:33:58.440Z,12.00
2022-11-21T06:36:27.263Z,11.40
2022-11-21T06:38:57.813Z,11.47
2022-11-21T06:41:30.190Z,11.27
2022-11-21T06:44:00.874Z,12.57
2022-11-21T06:46:29.908Z,12.43
2022-11-21T06:48:58.389Z,11.67
2022-11-21T06:51:27.296Z,12.43
2022-11-21T06:53:59.200Z,11.07
2022-11-21T06:56:29.403Z,10.03
2022-11-21T06:58:57.976Z,11.30
2022-11-21T07:01:28.178Z,11.30
2022-11-21T07:03:57.257Z,11.13
2022-11-21T07:06:25.889Z,10.40
2022-11-21T07:09:25.194Z,10.67
2022-11-21T07:11:45.733Z,10.93
2022-11-21T07:14:13.565Z,9.83
2022-11-21T07:16:43.558Z,10.67
2022-11-21T07:19:15.983Z,10.73
2022-11-21T07:21:44.405Z,10.20
2022-11-21T07:24:13.673Z,10.07
2022-11-21T07:26:42.283Z,10.73
2022-11-21T07:29:12.276Z,10.33
2022-11-21T07:31:40.702Z,10.53
2022-11-21T07:34:09.491Z,10.77
2022-11-21T07:36:38.059Z,11.17
2022-11-21T07:39:06.729Z,11.83
2022-11-21T07:41:39.296Z,10.63
2022-11-21T07:44:07.828Z,9.57
2022-11-21T07:46:37.836Z,11.87
2022-11-21T07:49:06.443Z,11.17
2022-11-21T07:51:35.450Z,11.27
2022-11-21T07:54:03.954Z,11.53
2022-11-21T07:56:32.613Z,9.47
2022-11-21T07:59:01.147Z,8.80
2022-11-21T08:01:29.946Z,9.37
2022-11-21T08:04:00.202Z,10.47
2022-11-21T08:06:28.913Z,8.63
2022-11-21T08:08:57.591Z,11.63
2022-11-21T08:11:26.876Z,11.47
2022-11-21T08:13:55.496Z,12.37
2022-11-21T08:16:27.957Z,13.70
2022-11-21T08:18:56.841Z,14.20
2022-11-21T08:21:26.796Z,13.87
2022-11-21T08:23:55.581Z,13.80
2022-11-21T08:26:24.311Z,15.40
2022-11-21T08:28:59.643Z,14.97
2022-11-21T08:31:28.363Z,16.10
2022-11-21T08:34:00.486Z,15.50
2022-11-21T08:36:30.070Z,15.60
2022-11-21T08:38:59.148Z,15.87
2022-11-21T08:41:44.943Z,16.70
2022-11-21T08:44:14.660Z,16.50
2022-11-21T08:46:43.196Z,16.77
2022-11-21T08:49:12.600Z,17.37
2022-11-21T08:51:42.580Z,17.23
2022-11-21T08:54:11.166Z,18.50
2022-11-21T08:56:39.559Z,17.13
2022-11-21T08:59:08.028Z,18.67
2022-11-21T09:01:37.192Z,19.33
2022-11-21T09:04:05.870Z,19.53
2022-11-21T09:06:35.475Z,20.07
2022-11-21T09:09:05.991Z,17.97
2022-11-21T09:11:35.380Z,18.80
2022-11-21T09:14:22.016Z,18.47
2022-11-21T09:17:08.958Z,17.97
2022-11-21T09:19:37.529Z,18.90
2022-11-21T09:22:06.190Z,18.07
2022-11-21T09:24:36.067Z,19.17
2022-11-21T09:27:04.768Z,18.27
2022-11-21T09:29:33.445Z,19.03
2022-11-21T09:32:01.926Z,17.93
2022-11-21T09:34:31.901Z,19.83
2022-11-21T09:37:00.387Z,18.80
2022-11-21T09:39:29.646Z,18.57
2022-11-21T09:42:13.716Z,19.53
2022-11-21T09:45:06.992Z,18.53
2022-11-21T09:47:38.330Z,18.10
2022-11-21T09:50:25.494Z,18.23
2022-11-21T09:52:59.089Z,17.00
2022-11-21T09:55:34.087Z,17.03
2022-11-21T09:58:07.828Z,18.83
2022-11-21T10:00:36.611Z,17.43
2022-11-21T10:03:06.251Z,16.73
2022-11-21T10:05:41.854Z,18.13
2022-11-21T10:08:21.754Z,17.20
2022-11-21T10:10:56.532Z,16.50
2022-11-21T10:13:45.671Z,16.37
2022-11-21T10:16:23.382Z,16.37
2022-11-21T10:19:14.167Z,15.53
2022-11-21T10:22:07.465Z,14.73
2022-11-21T10:24:45.075Z,15.60
2022-11-21T10:27:17.941Z,14.60
2022-11-21T10:29:53.270Z,15.10
2022-11-21T10:32:26.154Z,14.87
2022-11-21T10:34:59.182Z,15.37
2022-11-21T10:37:38.396Z,16.67
2022-11-21T10:40:20.018Z,16.67
2022-11-21T10:42:54.640Z,17.23
2022-11-21T10:45:23.541Z,16.30
2022-11-21T10:47:53.896Z,16.57
2022-11-21T10:50:42.160Z,15.83
2022-11-21T10:53:35.279Z,15.07
2022-11-21T10:56:06.891Z,15.97
2022-11-21T10:58:41.217Z,16.17
2022-11-21T11:01:25.636Z,15.00
2022-11-21T11:04:27.883Z,16.20
2022-11-21T11:06:57.369Z,17.43
2022-11-21T11:09:31.036Z,18.77
2022-11-21T11:12:47.009Z,18.80
2022-11-21T11:15:20.842Z,17.20
2022-11-21T11:17:59.128Z,17.33
2022-11-21T11:20:38.342Z,17.90
2022-11-21T11:23:25.904Z,15.90
2022-11-21T11:25:57.832Z,16.87
2022-11-21T11:28:27.604Z,16.93
2022-11-21T11:30:59.056Z,16.13
2022-11-21T11:33:35.383Z,16.63
2022-11-21T11:36:40.343Z,17.77
2022-11-21T11:39:19.120Z,16.73
2022-11-21T11:42:18.511Z,15.23
2022-11-21T11:45:15.720Z,15.50
2022-11-21T11:47:54.431Z,14.20
2022-11-21T11:50:32.224Z,15.40
2022-11-21T11:53:06.943Z,14.73
2022-11-21T11:55:41.491Z,13.83
2022-11-21T11:58:19.773Z,14.33
2022-11-21T12:00:53.993Z,15.37
2022-11-21T12:03:28.286Z,14.33
2022-11-21T12:06:08.948Z,15.43
2022-11-21T12:08:45.060Z,14.17
2022-11-21T12:11:50.548Z,14.73
2022-11-21T12:14:56.215Z,14.33
2022-11-21T12:17:32.404Z,15.60
2022-11-21T12:20:04.556Z,15.17
2022-11-21T12:22:36.982Z,14.43
2022-11-21T12:25:08.649Z,14.53
2022-11-21T12:27:37.186Z,15.03
2022-11-21T12:30:49.248Z,15.50
2022-11-21T12:33:22.170Z,14.47
2022-11-21T12:36:17.475Z,16.17
2022-11-21T12:39:10.805Z,13.60
2022-11-21T12:42:01.352Z,15.30
2022-11-21T12:44:43.682Z,13.03
2022-11-21T12:47:27.574Z,14.20
2022-11-21T12:50:17.944Z,15.87
2022-11-21T12:53:09.583Z,14.20
2022-11-21T12:55:41.360Z,14.27
2022-11-21T12:58:28.232Z,15.23
2022-11-21T13:01:15.440Z,14.80
2022-11-21T13:03:56.071Z,15.50
2022-11-21T13:06:28.317Z,14.80
2022-11-21T13:09:01.903Z,14.87
2022-11-21T13:12:02.772Z,15.53
2022-11-21T13:14:43.764Z,16.50
2022-11-21T13:17:22.218Z,14.23
2022-11-21T13:19:56.279Z,17.73
2022-11-21T13:22:50.620Z,16.03
2022-11-21T13:25:40.247Z,15.33
2022-11-21T13:28:36.748Z,15.30
2022-11-21T13:31:28.573Z,14.37
2022-11-21T13:33:57.878Z,15.73
2022-11-21T13:36:44.180Z,14.43
2022-11-21T13:39:37.257Z,15.47
2022-11-21T13:42:25.992Z,14.23
2022-11-21T13:44:56.916Z,13.23
2022-11-21T13:47:56.605Z,14.20
2022-11-21T13:50:38.720Z,14.80
2022-11-21T13:53:25.080Z,15.03
2022-11-21T13:56:08.161Z,15.67
2022-11-21T13:58:54.738Z,13.37
2022-11-21T14:01:55.786Z,16.03
2022-11-21T14:05:08.101Z,16.27
2022-11-21T14:07:39.198Z,17.30
2022-11-21T14:10:20.692Z,16.93
2022-11-21T14:12:51.536Z,16.40
2022-11-21T14:15:30.751Z,15.60
2022-11-21T14:18:02.989Z,15.80
2022-11-21T14:20:50.813Z,15.93
2022-11-21T14:23:22.453Z,15.57
2022-11-21T14:25:55.087Z,16.50
2022-11-21T14:28:27.009Z,17.03
2022-11-21T14:31:00.084Z,17.70
2022-11-21T14:33:35.454Z,22.83
2022-11-21T14:36:07.248Z,17.80
2022-11-21T14:38:41.737Z,17.33
2022-11-21T14:41:24.913Z,16.93
2022-11-21T14:44:06.817Z,16.23
2022-11-21T14:46:37.981Z,17.07
2022-11-21T14:49:34.871Z,16.33
2022-11-21T14:52:13.748Z,16.77
2022-11-21T14:55:13.386Z,16.27
2022-11-21T14:57:41.332Z,17.33
2022-11-21T15:03:21.781Z,16.13
2022-11-21T15:06:05.946Z,16.27
2022-11-21T15:09:33.446Z,16.03
2022-11-21T15:11:47.333Z,15.97
2022-11-21T15:14:25.707Z,15.97
2022-11-21T15:16:56.278Z,15.60
2022-11-21T15:19:33.662Z,15.87
2022-11-21T15:22:10.590Z,16.23
2022-11-21T15:24:43.945Z,16.03
2022-11-21T15:27:32.045Z,16.23
2022-11-21T15:30:06.592Z,15.57
2022-11-21T15:32:35.441Z,16.10
2022-11-21T15:35:31.939Z,15.80
2022-11-21T15:38:04.576Z,16.77
2022-11-21T15:40:34.064Z,17.60
2022-11-21T15:43:03.776Z,16.20
2022-11-21T15:45:32.368Z,18.77
2022-11-21T15:48:03.245Z,20.17
2022-11-21T15:50:39.110Z,21.77
2022-11-21T15:53:22.206Z,18.10
2022-11-21T15:55:59.322Z,21.23
2022-11-21T15:58:34.674Z,18.73
2022-11-21T16:01:07.770Z,19.53
2022-11-21T16:03:43.987Z,18.60
2022-11-21T16:06:13.953Z,16.70
2022-11-21T16:08:44.787Z,17.97
2022-11-21T16:11:25.542Z,17.80
2022-11-21T16:13:59.500Z,16.37
2022-11-21T16:16:31.113Z,15.90
2022-11-21T16:19:01.928Z,16.97
2022-11-21T16:21:30.749Z,16.33
2022-11-21T16:24:05.868Z,15.33
2022-11-21T16:26:43.928Z,15.97
2022-11-21T16:29:23.484Z,15.20
2022-11-21T16:31:57.993Z,17.10
2022-11-21T16:34:27.662Z,15.83
2022-11-21T16:36:56.414Z,15.63
2022-11-21T16:39:36.191Z,17.50
2022-11-21T16:42:05.790Z,17.70
2022-11-21T16:44:36.595Z,19.77
2022-11-21T16:47:10.245Z,16.77
2022-11-21T16:49:43.104Z,17.70
2022-11-21T16:52:12.212Z,18.27
2022-11-21T16:54:43.329Z,18.07
2022-11-21T16:57:14.236Z,17.57
2022-11-21T16:59:47.150Z,19.40
2022-11-21T17:02:16.105Z,18.33
2022-11-21T17:04:44.768Z,17.67
2022-11-21T17:07:17.752Z,17.57
2022-11-21T17:09:49.496Z,17.37
2022-11-21T17:12:18.607Z,18.03
2022-11-21T17:14:54.903Z,18.10
2022-11-21T17:17:24.037Z,17.93
2022-11-21T17:19:54.659Z,17.37
2022-11-21T17:22:25.412Z,16.73
2022-11-21T17:24:56.169Z,17.57
2022-11-21T17:27:25.049Z,18.27
2022-11-21T17:29:53.722Z,17.27
2022-11-21T17:32:23.914Z,18.57
2022-11-21T17:34:52.336Z,18.23
2022-11-21T17:37:21.130Z,18.33
2022-11-21T17:39:49.695Z,16.23
2022-11-21T17:42:19.600Z,14.80
2022-11-21T17:44:47.926Z,15.13
2022-11-21T17:47:16.583Z,14.83
2022-11-21T17:49:45.567Z,15.23
2022-11-21T17:52:16.733Z,13.87
2022-11-21T17:54:45.121Z,13.07
2022-11-21T17:57:14.330Z,13.97
2022-11-21T17:59:47.084Z,13.07
2022-11-21T18:02:17.820Z,12.83
2022-11-21T18:04:47.102Z,12.60
2022-11-21T18:07:16.055Z,12.83
2022-11-21T18:09:51.140Z,12.20
2022-11-21T18:12:20.026Z,12.47
2022-11-21T18:14:49.654Z,13.10
2022-11-21T18:17:18.219Z,12.47
2022-11-21T18:19:47.628Z,12.53
2022-11-21T18:22:17.259Z,12.40
2022-11-21T18:24:47.014Z,12.50
2022-11-21T18:27:15.853Z,12.47
2022-11-21T18:29:44.234Z,13.43
2022-11-21T18:32:14.162Z,16.40
2022-11-21T18:34:42.450Z,14.97
2022-11-21T18:37:11.039Z,14.10
2022-11-21T18:39:39.542Z,12.93
2022-11-21T18:42:08.431Z,14.70
2022-11-21T18:44:37.488Z,12.73
2022-11-21T18:47:19.271Z,14.13
2022-11-21T18:49:49.661Z,12.90
2022-11-21T18:52:18.032Z,12.63
2022-11-21T18:54:47.039Z,14.03
2022-11-21T18:57:15.887Z,12.87
2022-11-21T18:59:46.997Z,12.90
2022-11-21T19:02:16.629Z,13.13
2022-11-21T19:04:45.687Z,13.30
2022-11-21T19:07:15.370Z,13.10
2022-11-21T19:09:43.706Z,13.30
2022-11-21T19:12:12.034Z,12.77
2022-11-21T19:14:41.485Z,14.87
2022-11-21T19:17:10.341Z,14.00
2022-11-21T19:19:39.428Z,13.57
2022-11-21T19:22:09.111Z,12.97
2022-11-21T19:24:38.934Z,12.60
2022-11-21T19:27:07.387Z,13.43
2022-11-21T19:29:35.817Z,14.03
2022-11-21T19:32:04.348Z,11.93
2022-11-21T19:34:32.671Z,13.20
2022-11-21T19:37:01.185Z,12.70
2022-11-21T19:39:31.287Z,13.03
2022-11-21T19:42:02.887Z,13.47
2022-11-21T19:44:31.349Z,13.07
2022-11-21T19:47:00.097Z,13.77
2022-11-21T19:49:28.737Z,14.93
2022-11-21T19:51:57.197Z,15.27
2022-11-21T19:54:25.683Z,15.43
2022-11-21T19:56:54.063Z,14.93
2022-11-21T19:59:23.784Z,12.67
2022-11-21T20:01:53.054Z,13.77
2022-11-21T20:04:21.982Z,12.03
2022-11-21T20:06:50.671Z,11.97
2022-11-21T20:09:21.832Z,11.80
2022-11-21T20:11:52.258Z,11.57
2022-11-21T20:14:22.751Z,11.27
2022-11-21T20:16:53.844Z,9.93
2022-11-21T20:19:24.180Z,10.00
2022-11-21T20:21:52.961Z,9.30
2022-11-21T20:24:24.349Z,9.40
2022-11-21T20:26:53.396Z,9.77
2022-11-21T20:29:25.090Z,9.40
2022-11-21T20:31:59.020Z,9.93
2022-11-21T20:34:28.608Z,10.17
2022-11-21T20:36:58.919Z,11.07
2022-11-21T20:39:31.839Z,11.73
2022-11-21T20:42:01.694Z,11.80
2022-11-21T20:47:21.103Z,11.70
2022-11-21T20:49:49.517Z,12.73
2022-11-21T20:55:09.809Z,12.17
2022-11-21T20:57:39.272Z,12.90
2022-11-21T21:00:09.018Z,13.07
2022-11-21T21:02:38.634Z,13.97
2022-11-21T21:05:08.257Z,14.47
2022-11-21T21:07:36.663Z,13.73
2022-11-21T21:10:05.915Z,14.60
2022-11-21T21:12:34.295Z,13.80
2022-11-21T21:15:02.686Z,12.90
2022-11-21T21:17:31.117Z,12.87
2022-11-21T21:20:00.749Z,14.93
2022-11-21T21:22:29.793Z,12.47
2022-11-21T21:24:58.119Z,10.67
2022-11-21T21:27:26.571Z,10.80
2022-11-21T21:29:55.921Z,10.90
2022-11-21T21:32:24.353Z,10.40
2022-11-21T21:34:53.035Z,12.27
2022-11-21T21:37:22.944Z,10.83
2022-11-21T21:39:51.450Z,11.10
2022-11-21T21:42:19.689Z,8.87
2022-11-21T21:44:48.195Z,8.80
2022-11-21T21:47:17.372Z,9.67
2022-11-21T21:49:45.779Z,10.23
2022-11-21T21:52:14.425Z,10.27
2022-11-21T21:54:51.175Z,9.70
2022-11-21T21:57:19.859Z,9.57
2022-11-21T21:59:48.136Z,10.00
2022-11-21T22:02:16.699Z,10.47
2022-11-21T22:04:49.157Z,9.80
2022-11-21T22:07:20.654Z,10.03
2022-11-21T22:09:49.461Z,10.30
2022-11-21T22:12:19.303Z,10.10
2022-11-21T22:14:47.653Z,10.17
2022-11-21T22:17:16.178Z,10.10
2022-11-21T22:19:44.744Z,10.10
2022-11-21T22:22:13.352Z,10.47
2022-11-21T22:24:42.188Z,11.13
2022-11-21T22:27:10.928Z,10.00
2022-11-21T22:29:40.548Z,10.37
2022-11-21T22:32:09.001Z,9.40
2022-11-21T22:34:38.419Z,9.93
2022-11-21T22:37:07.499Z,9.77
2022-11-21T22:39:36.420Z,9.73
2022-11-21T22:42:05.078Z,12.27
2022-11-21T22:44:34.496Z,11.37
2022-11-21T22:47:04.549Z,10.70
2022-11-21T22:49:32.896Z,11.30
2022-11-21T22:52:01.508Z,10.43
2022-11-21T22:54:30.924Z,9.53
2022-11-21T22:56:59.689Z,9.33
2022-11-21T22:59:28.024Z,9.33
2022-11-21T23:01:56.488Z,9.00
2022-11-21T23:04:26.158Z,8.97
2022-11-21T23:06:54.616Z,9.70
2022-11-21T23:09:23.130Z,11.47
2022-11-21T23:11:51.948Z,11.20
2022-11-21T23:14:20.621Z,10.00
2022-11-21T23:16:49.020Z,9.40
2022-11-21T23:19:17.448Z,9.80
2022-11-21T23:21:47.593Z,9.83
2022-11-21T23:24:17.295Z,9.93
2022-11-21T23:26:45.936Z,9.90
2022-11-21T23:29:14.795Z,10.37
2022-11-21T23:31:45.249Z,8.67
2022-11-21T23:34:13.854Z,8.93
2022-11-21T23:36:42.736Z,9.33
2022-11-21T23:39:12.535Z,10.10
2022-11-21T23:41:41.102Z,9.10
2022-11-21T23:44:09.436Z,8.77
2022-11-21T23:46:37.834Z,8.80
2022-11-21T23:49:07.123Z,8.80
2022-11-21T23:51:35.638Z,8.23
2022-11-21T23:54:03.939Z,9.70
2022-11-21T23:56:34.436Z,10.20
2022-11-21T23:59:03.048Z,8.33
